Time;durP1;ratioP1;P1;durP2;ratioP2;P2;SDS_P1;SDS_P2;PMS_P1;PMS_P2;Temp;Humidity;BMP_temperature;BMP_pressure;BME280_temperature;BME280_humidity;BME280_pressure;Samples;Min_cycle;Max_cycle;Signal;HPM_P1;HPM_P2
2023/04/24 00:00:42;;;;;;;4.73;3.10;;;;;;;;;;5025748;28;20124;-68
2023/04/24 00:03:07;;;;;;;3.92;2.95;;;;;;;;;;4994956;28;20232;-61
2023/04/24 00:05:33;;;;;;;3.97;3.33;;;;;;;;;;5004507;28;20446;-64
2023/04/24 00:07:58;;;;;;;5.00;3.40;;;;;;;;;;5024206;28;20511;-65
2023/04/24 00:10:24;;;;;;;4.73;2.93;;;;;;;;;;5006879;28;20029;-70
2023/04/24 00:12:49;;;;;;;4.97;3.40;;;;;;;;;;5012022;28;20183;-69
2023/04/24 00:15:14;;;;;;;4.43;3.27;;;;;;;;;;5025948;28;20153;-65
2023/04/24 00:17:40;;;;;;;4.82;3.35;;;;;;;;;;5018796;28;20666;-69
2023/04/24 00:20:06;;;;;;;4.28;3.25;;;;;;;;;;4998963;28;20103;-69
2023/04/24 00:22:31;;;;;;;3.65;2.92;;;;;;;;;;5002146;28;20520;-69
2023/04/24 00:24:57;;;;;;;3.87;2.93;;;;;;;;;;5024167;28;20041;-63
2023/04/24 00:27:22;;;;;;;3.93;3.20;;;;;;;;;;5018714;28;20900;-66
2023/04/24 00:29:47;;;;;;;3.75;3.17;;;;;;;;;;4988249;28;20861;-70
2023/04/24 00:32:13;;;;;;;4.03;3.07;;;;;;;;;;5008024;28;20056;-70
2023/04/24 00:34:38;;;;;;;3.88;3.08;;;;;;;;;;5016509;28;20279;-66
2023/04/24 00:37:04;;;;;;;4.15;3.10;;;;;;;;;;5007900;28;20054;-68
2023/04/24 00:39:29;;;;;;;3.97;3.43;;;;;;;;;;5022644;28;20462;-68
2023/04/24 00:41:55;;;;;;;4.03;2.78;;;;;;;;;;4989616;28;20329;-68
2023/04/24 00:44:20;;;;;;;4.30;3.08;;;;;;;;;;5016582;28;20045;-62
2023/04/24 00:46:45;;;;;;;4.35;3.28;;;;;;;;;;4997252;28;20102;-69
2023/04/24 00:49:11;;;;;;;3.85;2.92;;;;;;;;;;5007232;28;20565;-69
2023/04/24 00:51:36;;;;;;;4.20;3.47;;;;;;;;;;5002750;28;20037;-63
2023/04/24 00:54:01;;;;;;;3.70;3.03;;;;;;;;;;5016051;28;20033;-69
2023/04/24 00:56:27;;;;;;;3.83;2.97;;;;;;;;;;5004066;28;20117;-71
2023/04/24 00:58:52;;;;;;;3.40;2.95;;;;;;;;;;4979808;28;20113;-69
2023/04/24 01:01:20;;;;;;;4.20;3.30;;;;;;;;;;5022466;28;20414;-69
2023/04/24 01:03:46;;;;;;;3.30;2.92;;;;;;;;;;5014240;28;20525;-69
2023/04/24 01:06:11;;;;;;;3.95;2.58;;;;;;;;;;4999845;28;20900;-70
2023/04/24 01:08:36;;;;;;;4.43;3.17;;;;;;;;;;5015856;28;20025;-67
2023/04/24 01:11:02;;;;;;;5.80;2.95;;;;;;;;;;5011170;28;20072;-69
2023/04/24 01:13:27;;;;;;;4.15;2.90;;;;;;;;;;5020292;28;20124;-63
2023/04/24 01:15:52;;;;;;;4.38;2.85;;;;;;;;;;5004152;28;20084;-67
2023/04/24 01:18:17;;;;;;;4.23;3.17;;;;;;;;;;5017667;28;20029;-68
2023/04/24 01:20:44;;;;;;;4.07;3.10;;;;;;;;;;5009235;28;20853;-68
2023/04/24 01:23:09;;;;;;;3.78;3.00;;;;;;;;;;5024648;28;20359;-67
2023/04/24 01:25:34;;;;;;;4.20;3.20;;;;;;;;;;5007978;28;20053;-69
2023/04/24 01:27:59;;;;;;;3.97;3.33;;;;;;;;;;4996655;28;20041;-69
2023/04/24 01:30:25;;;;;;;4.70;3.22;;;;;;;;;;5010336;28;20666;-66
2023/04/24 01:32:51;;;;;;;3.35;2.75;;;;;;;;;;5003276;28;20445;-70
2023/04/24 01:35:16;;;;;;;3.97;3.00;;;;;;;;;;5014261;28;20033;-69
2023/04/24 01:37:41;;;;;;;3.77;3.20;;;;;;;;;;5006550;28;20072;-70
2023/04/24 01:40:07;;;;;;;3.43;2.93;;;;;;;;;;5008259;28;20042;-69
2023/04/24 01:42:32;;;;;;;3.38;2.88;;;;;;;;;;5014461;28;20276;-69
2023/04/24 01:44:57;;;;;;;4.20;3.42;;;;;;;;;;5010591;28;20469;-69
2023/04/24 01:47:23;;;;;;;4.20;3.00;;;;;;;;;;4998572;28;20060;-69
2023/04/24 01:49:48;;;;;;;4.30;3.10;;;;;;;;;;5018585;28;20518;-65
2023/04/24 01:52:14;;;;;;;3.13;2.72;;;;;;;;;;4986633;28;20037;-70
2023/04/24 01:54:39;;;;;;;4.50;3.42;;;;;;;;;;4985481;28;20468;-64
2023/04/24 01:57:05;;;;;;;3.88;3.10;;;;;;;;;;5014515;28;20041;-68
2023/04/24 01:59:30;;;;;;;3.20;2.80;;;;;;;;;;4992650;28;20037;-68
2023/04/24 02:01:55;;;;;;;4.35;3.20;;;;;;;;;;5000157;28;20061;-67
2023/04/24 02:04:20;;;;;;;5.67;3.33;;;;;;;;;;4989354;28;20099;-69
2023/04/24 02:06:46;;;;;;;3.80;3.10;;;;;;;;;;5015567;28;20307;-70
2023/04/24 02:09:11;;;;;;;3.43;2.83;;;;;;;;;;5010677;28;20034;-69
2023/04/24 02:11:36;;;;;;;5.03;2.77;;;;;;;;;;5005137;28;20036;-67
2023/04/24 02:14:01;;;;;;;3.53;2.85;;;;;;;;;;5003189;28;21306;-68
2023/04/24 02:16:30;;;;;;;4.73;3.27;;;;;;;;;;4989612;28;20041;-69
2023/04/24 02:18:55;;;;;;;3.72;3.03;;;;;;;;;;5007025;28;20312;-65
2023/04/24 02:21:20;;;;;;;4.00;3.03;;;;;;;;;;5013166;28;20206;-67
2023/04/24 02:23:45;;;;;;;4.23;3.10;;;;;;;;;;5019503;28;20083;-69
2023/04/24 02:26:10;;;;;;;3.95;2.85;;;;;;;;;;5004617;28;20296;-71
2023/04/24 02:28:36;;;;;;;3.03;2.60;;;;;;;;;;5019410;28;20442;-70
2023/04/24 02:31:01;;;;;;;3.13;2.63;;;;;;;;;;5023220;28;20657;-68
2023/04/24 02:33:26;;;;;;;3.40;3.00;;;;;;;;;;5005004;28;20541;-68
2023/04/24 02:35:51;;;;;;;3.70;3.30;;;;;;;;;;5015290;28;20289;-70
2023/04/24 02:38:17;;;;;;;3.83;3.10;;;;;;;;;;5003357;28;20312;-70
2023/04/24 02:40:42;;;;;;;4.00;2.77;;;;;;;;;;4990055;28;20288;-67
2023/04/24 02:43:07;;;;;;;4.40;3.05;;;;;;;;;;5004662;28;20026;-68
2023/04/24 02:45:34;;;;;;;4.83;2.87;;;;;;;;;;4982372;28;20136;-68
2023/04/24 02:47:59;;;;;;;3.88;2.90;;;;;;;;;;5003904;28;20303;-69
2023/04/24 02:50:24;;;;;;;3.90;2.97;;;;;;;;;;5012658;28;20037;-70
2023/04/24 02:52:50;;;;;;;3.83;3.00;;;;;;;;;;5021058;28;20272;-70
2023/04/24 02:55:15;;;;;;;3.30;2.90;;;;;;;;;;5005001;28;20273;-66
2023/04/24 02:57:40;;;;;;;3.57;3.03;;;;;;;;;;5002161;28;20797;-66
2023/04/24 03:00:07;;;;;;;3.57;3.10;;;;;;;;;;5001042;28;20296;-68
2023/04/24 03:02:32;;;;;;;3.70;3.10;;;;;;;;;;5003053;28;20547;-68
2023/04/24 03:04:57;;;;;;;3.37;2.90;;;;;;;;;;5006292;28;20549;-62
2023/04/24 03:07:23;;;;;;;6.45;3.10;;;;;;;;;;5022475;28;20841;-70
2023/04/24 03:09:49;;;;;;;3.78;2.95;;;;;;;;;;5008568;28;20091;-69
2023/04/24 03:12:14;;;;;;;2.92;2.65;;;;;;;;;;5004825;28;20418;-63
2023/04/24 03:14:39;;;;;;;3.40;2.90;;;;;;;;;;5014970;28;20437;-62
2023/04/24 03:17:05;;;;;;;4.47;3.17;;;;;;;;;;5020230;28;20069;-68
2023/04/24 03:19:30;;;;;;;3.42;2.90;;;;;;;;;;5004573;28;20281;-71
2023/04/24 03:21:55;;;;;;;3.53;3.17;;;;;;;;;;5020215;28;20029;-63
2023/04/24 03:24:20;;;;;;;4.60;2.83;;;;;;;;;;5013478;28;20660;-65
2023/04/24 03:26:46;;;;;;;3.22;2.70;;;;;;;;;;5026012;28;20466;-69
2023/04/24 03:29:11;;;;;;;3.77;2.70;;;;;;;;;;4994789;28;20025;-69
2023/04/24 03:31:36;;;;;;;3.33;2.73;;;;;;;;;;4997419;28;20346;-66
2023/04/24 03:34:01;;;;;;;3.87;2.77;;;;;;;;;;5024488;28;20272;-68
2023/04/24 03:36:27;;;;;;;3.20;2.77;;;;;;;;;;5001269;28;20140;-69
2023/04/24 03:38:52;;;;;;;3.60;2.58;;;;;;;;;;4994851;28;20121;-67
2023/04/24 03:41:18;;;;;;;4.33;3.13;;;;;;;;;;5007244;28;20128;-68
2023/04/24 03:43:44;;;;;;;3.20;2.60;;;;;;;;;;5003447;28;20304;-61
2023/04/24 03:46:09;;;;;;;2.80;2.50;;;;;;;;;;5009641;28;20134;-68
2023/04/24 03:48:34;;;;;;;3.40;2.72;;;;;;;;;;4998259;28;20032;-68
2023/04/24 03:51:00;;;;;;;4.18;2.88;;;;;;;;;;5025846;28;20060;-70
2023/04/24 03:53:26;;;;;;;3.20;2.78;;;;;;;;;;4989412;28;20430;-66
2023/04/24 03:55:51;;;;;;;3.08;2.70;;;;;;;;;;5016061;28;20071;-65
2023/04/24 03:58:17;;;;;;;3.43;2.60;;;;;;;;;;5017135;28;20470;-65
2023/04/24 04:00:44;;;;;;;3.88;2.80;;;;;;;;;;5012813;28;20277;-66
2023/04/24 04:03:09;;;;;;;3.33;2.92;;;;;;;;;;5007353;28;20037;-65
2023/04/24 04:05:34;;;;;;;4.32;2.72;;;;;;;;;;5017750;28;20053;-68
2023/04/24 04:08:00;;;;;;;3.07;2.67;;;;;;;;;;5019565;28;20113;-69
2023/04/24 04:10:25;;;;;;;4.87;2.77;;;;;;;;;;5016938;28;20084;-69
2023/04/24 04:12:50;;;;;;;5.80;2.90;;;;;;;;;;5014921;28;20823;-67
2023/04/24 04:15:15;;;;;;;9.33;3.20;;;;;;;;;;5015458;28;20498;-67
2023/04/24 04:17:41;;;;;;;7.53;3.37;;;;;;;;;;5009265;28;20494;-69
2023/04/24 04:20:09;;;;;;;11.05;3.22;;;;;;;;;;5015514;28;20287;-61
2023/04/24 04:22:35;;;;;;;8.30;3.60;;;;;;;;;;5012859;28;20041;-70
2023/04/24 04:25:00;;;;;;;8.82;3.20;;;;;;;;;;5018535;28;20099;-68
2023/04/24 04:27:26;;;;;;;13.77;3.72;;;;;;;;;;5024774;28;20037;-68
2023/04/24 04:29:52;;;;;;;10.70;3.45;;;;;;;;;;4993305;28;20030;-65
2023/04/24 04:32:17;;;;;;;15.18;3.90;;;;;;;;;;5012087;28;20556;-64
2023/04/24 04:34:45;;;;;;;12.02;3.47;;;;;;;;;;5006583;28;20052;-67
2023/04/24 04:37:11;;;;;;;13.27;3.53;;;;;;;;;;5011589;28;20426;-69
2023/04/24 04:39:36;;;;;;;15.38;3.40;;;;;;;;;;5013512;28;20103;-69
2023/04/24 04:42:01;;;;;;;13.80;3.73;;;;;;;;;;5025110;28;20033;-68
2023/04/24 04:44:27;;;;;;;14.57;3.63;;;;;;;;;;5005759;28;20659;-70
2023/04/24 04:46:53;;;;;;;13.00;3.90;;;;;;;;;;5011865;28;20102;-69
2023/04/24 04:49:18;;;;;;;12.80;3.65;;;;;;;;;;5008214;28;20037;-69
2023/04/24 04:51:43;;;;;;;11.02;3.90;;;;;;;;;;5020768;28;20030;-67
2023/04/24 04:54:09;;;;;;;13.80;3.90;;;;;;;;;;4989854;28;20046;-69
2023/04/24 04:56:34;;;;;;;16.47;4.10;;;;;;;;;;5001199;28;20874;-68
2023/04/24 04:58:59;;;;;;;14.45;4.25;;;;;;;;;;4988604;28;20034;-67
2023/04/24 05:01:27;;;;;;;13.65;3.85;;;;;;;;;;5010824;28;20033;-69
2023/04/24 05:03:52;;;;;;;15.45;3.95;;;;;;;;;;5007374;28;20037;-62
2023/04/24 05:06:17;;;;;;;15.73;3.80;;;;;;;;;;4994317;28;20477;-68
2023/04/24 05:08:42;;;;;;;12.13;4.13;;;;;;;;;;5013384;28;20292;-67
2023/04/24 05:11:08;;;;;;;16.03;3.70;;;;;;;;;;5007552;28;20046;-72
2023/04/24 05:13:33;;;;;;;21.73;4.40;;;;;;;;;;5004066;28;20047;-68
2023/04/24 05:15:58;;;;;;;12.83;3.80;;;;;;;;;;5021578;28;20437;-67
2023/04/24 05:18:24;;;;;;;10.77;3.92;;;;;;;;;;5003547;28;20288;-66
2023/04/24 05:20:49;;;;;;;17.08;4.30;;;;;;;;;;5002689;28;20487;-67
2023/04/24 05:23:14;;;;;;;16.07;3.70;;;;;;;;;;5000868;28;20494;-69
2023/04/24 05:25:41;;;;;;;13.30;3.87;;;;;;;;;;5020258;28;20308;-70
2023/04/24 05:28:06;;;;;;;13.98;4.05;;;;;;;;;;4999556;28;20277;-70
2023/04/24 05:30:31;;;;;;;11.80;3.73;;;;;;;;;;5021271;28;20135;-67
2023/04/24 05:32:56;;;;;;;10.45;4.00;;;;;;;;;;5021293;28;20288;-69
2023/04/24 05:35:22;;;;;;;15.63;4.60;;;;;;;;;;5019726;28;20124;-72
2023/04/24 05:37:47;;;;;;;20.65;4.95;;;;;;;;;;4995782;28;20164;-67
2023/04/24 05:40:12;;;;;;;14.32;3.65;;;;;;;;;;5020950;28;20034;-66
2023/04/24 05:42:38;;;;;;;16.07;4.20;;;;;;;;;;4999849;28;20538;-75
2023/04/24 05:45:03;;;;;;;15.37;4.03;;;;;;;;;;5000241;28;20479;-68
2023/04/24 05:47:28;;;;;;;16.50;4.07;;;;;;;;;;5014923;28;20284;-64
2023/04/24 05:49:54;;;;;;;21.40;4.37;;;;;;;;;;4997971;28;20038;-69
2023/04/24 05:52:19;;;;;;;15.93;4.70;;;;;;;;;;5001700;28;20808;-72
2023/04/24 05:54:44;;;;;;;16.98;4.57;;;;;;;;;;5012278;28;20061;-65
2023/04/24 05:57:10;;;;;;;11.68;4.43;;;;;;;;;;5011506;28;20442;-73
2023/04/24 05:59:36;;;;;;;17.13;4.97;;;;;;;;;;5000736;28;20407;-72
2023/04/24 06:02:01;;;;;;;13.27;4.55;;;;;;;;;;5005803;28;20447;-73
2023/04/24 06:04:27;;;;;;;15.07;4.30;;;;;;;;;;5024362;28;20087;-70
2023/04/24 06:06:55;;;;;;;15.40;4.70;;;;;;;;;;4997381;28;20103;-66
2023/04/24 06:09:21;;;;;;;10.02;3.85;;;;;;;;;;5013695;28;20530;-68
2023/04/24 06:11:46;;;;;;;14.85;4.53;;;;;;;;;;5016226;28;20419;-71
2023/04/24 06:14:11;;;;;;;14.10;4.33;;;;;;;;;;5017585;28;20037;-67
2023/04/24 06:16:38;;;;;;;15.57;4.70;;;;;;;;;;5002439;28;20848;-69
2023/04/24 06:19:03;;;;;;;13.00;4.38;;;;;;;;;;5017481;28;20033;-66
2023/04/24 06:21:29;;;;;;;15.10;4.07;;;;;;;;;;5002123;28;20050;-65
2023/04/24 06:23:55;;;;;;;10.40;4.07;;;;;;;;;;5014245;28;20038;-71
2023/04/24 06:26:21;;;;;;;13.80;4.65;;;;;;;;;;5018601;28;20139;-71
2023/04/24 06:28:47;;;;;;;17.35;4.22;;;;;;;;;;4992040;28;20033;-74
2023/04/24 06:31:12;;;;;;;14.57;4.13;;;;;;;;;;5025509;28;20044;-69
2023/04/24 06:33:37;;;;;;;11.30;3.70;;;;;;;;;;5017314;28;20350;-67
2023/04/24 06:36:03;;;;;;;13.25;4.95;;;;;;;;;;5010792;28;20277;-66
2023/04/24 06:38:29;;;;;;;10.23;3.60;;;;;;;;;;5026381;28;20046;-66
2023/04/24 06:40:54;;;;;;;13.35;4.55;;;;;;;;;;5017048;28;20503;-65
2023/04/24 06:43:20;;;;;;;11.33;4.10;;;;;;;;;;5019552;28;20156;-69
2023/04/24 06:45:46;;;;;;;15.00;4.07;;;;;;;;;;5015283;28;20308;-72
2023/04/24 06:48:12;;;;;;;10.18;3.70;;;;;;;;;;5000496;28;20038;-70
2023/04/24 06:50:37;;;;;;;14.07;4.23;;;;;;;;;;4988642;28;20422;-75
2023/04/24 06:53:02;;;;;;;9.95;3.45;;;;;;;;;;5016466;28;20278;-71
2023/04/24 06:55:27;;;;;;;10.67;4.10;;;;;;;;;;5014214;28;20485;-70
2023/04/24 06:57:53;;;;;;;14.03;4.57;;;;;;;;;;5019979;28;20572;-70
2023/04/24 07:00:18;;;;;;;12.63;4.07;;;;;;;;;;5012814;28;20283;-72
2023/04/24 07:02:43;;;;;;;10.48;3.67;;;;;;;;;;5022951;28;20057;-73
2023/04/24 07:05:08;;;;;;;15.13;4.60;;;;;;;;;;5020871;28;20473;-70
2023/04/24 07:07:34;;;;;;;12.10;4.30;;;;;;;;;;5023212;28;20276;-72
2023/04/24 07:09:59;;;;;;;9.65;4.13;;;;;;;;;;5022887;28;20342;-69
2023/04/24 07:12:24;;;;;;;11.43;4.00;;;;;;;;;;5013607;28;20063;-68
2023/04/24 07:14:50;;;;;;;10.65;3.85;;;;;;;;;;5014836;28;20125;-70
2023/04/24 07:17:16;;;;;;;8.45;3.33;;;;;;;;;;4974426;28;20422;-70
2023/04/24 07:19:41;;;;;;;9.35;3.65;;;;;;;;;;4998234;28;20029;-72
2023/04/24 07:22:06;;;;;;;10.40;3.88;;;;;;;;;;4988823;28;20531;-69
2023/04/24 07:24:32;;;;;;;10.45;4.10;;;;;;;;;;4986047;28;20042;-78
2023/04/24 07:26:57;;;;;;;10.25;4.10;;;;;;;;;;5012024;28;20094;-71
2023/04/24 07:29:22;;;;;;;8.83;3.77;;;;;;;;;;4992119;28;20045;-73
2023/04/24 07:31:48;;;;;;;8.27;3.80;;;;;;;;;;5023547;28;20692;-70
2023/04/24 07:34:13;;;;;;;12.55;3.78;;;;;;;;;;5023299;28;20413;-68
2023/04/24 07:36:38;;;;;;;8.73;3.90;;;;;;;;;;4997136;28;20199;-61
2023/04/24 07:39:04;;;;;;;8.00;3.20;;;;;;;;;;4994592;28;20033;-63
2023/04/24 07:41:29;;;;;;;10.40;4.05;;;;;;;;;;5016461;28;20275;-67
2023/04/24 07:43:54;;;;;;;13.43;4.70;;;;;;;;;;5022916;28;20080;-66
2023/04/24 07:46:20;;;;;;;9.27;3.60;;;;;;;;;;4995863;28;20030;-75
2023/04/24 07:48:46;;;;;;;8.18;3.40;;;;;;;;;;4998280;28;20303;-72
2023/04/24 07:51:13;;;;;;;10.52;3.55;;;;;;;;;;4992962;28;20445;-66
2023/04/24 07:53:38;;;;;;;9.48;3.92;;;;;;;;;;5020439;28;20026;-66
2023/04/24 07:56:03;;;;;;;8.83;3.10;;;;;;;;;;4992963;28;20124;-65
2023/04/24 07:58:28;;;;;;;9.27;3.85;;;;;;;;;;4986940;28;20057;-63
2023/04/24 08:00:54;;;;;;;7.60;3.83;;;;;;;;;;5015435;28;20029;-62
2023/04/24 08:03:19;;;;;;;8.45;3.72;;;;;;;;;;5011084;28;20112;-65
2023/04/24 08:05:45;;;;;;;10.00;3.83;;;;;;;;;;5022718;28;20025;-71
2023/04/24 08:08:10;;;;;;;8.40;3.65;;;;;;;;;;5005163;28;20466;-72
2023/04/24 08:10:35;;;;;;;8.27;3.93;;;;;;;;;;4985911;28;20406;-62
2023/04/24 08:13:00;;;;;;;10.33;4.27;;;;;;;;;;5010100;28;20267;-67
2023/04/24 08:15:27;;;;;;;9.70;3.40;;;;;;;;;;5024162;28;20359;-69
2023/04/24 08:17:52;;;;;;;9.43;4.07;;;;;;;;;;4988701;28;20295;-67
2023/04/24 08:20:17;;;;;;;10.75;3.88;;;;;;;;;;4996993;28;20382;-64
2023/04/24 08:22:43;;;;;;;8.97;3.90;;;;;;;;;;5026545;28;20022;-64
2023/04/24 08:25:08;;;;;;;12.30;4.05;;;;;;;;;;5013857;28;20024;-66
2023/04/24 08:27:34;;;;;;;14.07;4.82;;;;;;;;;;4995189;28;20029;-69
2023/04/24 08:29:59;;;;;;;10.43;4.20;;;;;;;;;;5018581;28;20006;-70
2023/04/24 08:32:27;;;;;;;7.60;4.22;;;;;;;;;;5020520;28;20068;-73
2023/04/24 08:34:52;;;;;;;11.90;4.28;;;;;;;;;;5003304;28;20112;-70
2023/04/24 08:37:18;;;;;;;8.68;4.05;;;;;;;;;;4995711;28;20693;-74
2023/04/24 08:39:43;;;;;;;8.73;4.03;;;;;;;;;;5002305;28;20041;-63
2023/04/24 08:42:09;;;;;;;8.60;3.83;;;;;;;;;;4993382;28;20034;-66
2023/04/24 08:44:35;;;;;;;7.90;3.67;;;;;;;;;;4994702;28;20380;-66
2023/04/24 08:47:00;;;;;;;7.43;3.72;;;;;;;;;;4991001;28;20022;-65
2023/04/24 08:49:25;;;;;;;6.57;3.70;;;;;;;;;;4995324;28;20091;-66
2023/04/24 08:51:51;;;;;;;7.73;3.87;;;;;;;;;;4993962;28;20546;-70
2023/04/24 08:54:16;;;;;;;6.73;4.13;;;;;;;;;;4994069;28;20834;-66
2023/04/24 08:56:42;;;;;;;7.23;3.93;;;;;;;;;;5002318;28;20018;-71
2023/04/24 08:59:08;;;;;;;7.80;4.13;;;;;;;;;;4993695;28;20027;-67
2023/04/24 09:01:34;;;;;;;6.60;3.88;;;;;;;;;;5004719;28;20133;-68
2023/04/24 09:04:03;;;;;;;8.13;3.75;;;;;;;;;;4995513;28;20115;-61
2023/04/24 09:06:28;;;;;;;5.82;4.03;;;;;;;;;;4979944;28;20500;-75
2023/04/24 09:08:53;;;;;;;7.07;3.87;;;;;;;;;;4994342;28;20030;-67
2023/04/24 09:11:19;;;;;;;8.10;3.85;;;;;;;;;;5015510;28;20732;-64
2023/04/24 09:13:44;;;;;;;5.93;3.58;;;;;;;;;;4999161;28;20030;-61
2023/04/24 09:16:09;;;;;;;6.13;3.80;;;;;;;;;;5004394;28;20033;-67
2023/04/24 09:18:35;;;;;;;5.63;3.70;;;;;;;;;;4981238;28;20308;-69
2023/04/24 09:21:03;;;;;;;9.80;4.18;;;;;;;;;;4989069;28;20661;-72
2023/04/24 09:23:29;;;;;;;6.32;3.67;;;;;;;;;;4995731;28;20509;-66
2023/04/24 09:25:55;;;;;;;9.82;3.95;;;;;;;;;;4995456;28;20050;-66
2023/04/24 09:28:22;;;;;;;5.85;3.53;;;;;;;;;;4989557;28;20063;-69
2023/04/24 09:30:47;;;;;;;5.63;3.63;;;;;;;;;;4983613;28;20116;-69
2023/04/24 09:33:15;;;;;;;4.90;3.77;;;;;;;;;;4998649;28;20121;-66
2023/04/24 09:35:50;;;;;;;6.55;3.85;;;;;;;;;;4994372;28;20604;-70
2023/04/24 09:38:16;;;;;;;7.63;3.92;;;;;;;;;;5021163;28;20069;-66
2023/04/24 09:40:41;;;;;;;5.70;3.80;;;;;;;;;;5024321;28;20068;-71
2023/04/24 09:43:09;;;;;;;5.97;3.70;;;;;;;;;;5024100;28;20268;-72
2023/04/24 09:45:40;;;;;;;5.97;4.05;;;;;;;;;;4989247;28;20050;-71
2023/04/24 09:48:08;;;;;;;5.30;3.60;;;;;;;;;;5017899;28;20435;-67
2023/04/24 09:50:34;;;;;;;7.43;3.70;;;;;;;;;;4993315;28;20048;-68
2023/04/24 09:53:01;;;;;;;6.60;3.45;;;;;;;;;;5019412;28;20038;-69
2023/04/24 09:55:27;;;;;;;6.40;3.55;;;;;;;;;;5006513;28;20068;-74
2023/04/24 09:57:54;;;;;;;5.60;4.00;;;;;;;;;;5019826;28;20062;-66
2023/04/24 10:00:26;;;;;;;5.35;3.70;;;;;;;;;;5017074;28;20071;-71
2023/04/24 10:02:58;;;;;;;5.32;3.65;;;;;;;;;;4987016;28;20044;-69
2023/04/24 10:05:25;;;;;;;5.18;3.53;;;;;;;;;;5017766;28;20107;-70
2023/04/24 10:07:50;;;;;;;5.32;3.33;;;;;;;;;;5021018;28;20053;-70
2023/04/24 10:10:15;;;;;;;6.13;3.47;;;;;;;;;;5006278;28;20053;-70
2023/04/24 10:12:40;;;;;;;5.88;3.65;;;;;;;;;;5006120;28;20283;-65
2023/04/24 10:15:06;;;;;;;4.97;3.60;;;;;;;;;;5024175;28;20026;-67
2023/04/24 10:17:31;;;;;;;7.10;3.85;;;;;;;;;;4998581;28;20381;-66
2023/04/24 10:19:57;;;;;;;5.23;3.60;;;;;;;;;;5003917;28;20030;-71
2023/04/24 10:22:22;;;;;;;5.13;3.37;;;;;;;;;;5004985;28;20280;-70
2023/04/24 10:24:47;;;;;;;11.00;3.60;;;;;;;;;;5008868;28;20110;-67
2023/04/24 10:27:12;;;;;;;8.60;3.63;;;;;;;;;;5020980;28;20182;-66
2023/04/24 10:29:38;;;;;;;9.48;3.55;;;;;;;;;;4997665;28;20279;-67
2023/04/24 10:32:03;;;;;;;6.90;3.63;;;;;;;;;;5009307;28;20122;-67
2023/04/24 10:34:28;;;;;;;6.70;3.90;;;;;;;;;;5018684;28;20299;-70
2023/04/24 10:36:53;;;;;;;10.43;4.40;;;;;;;;;;4993438;28;20301;-69
2023/04/24 10:39:19;;;;;;;8.48;4.00;;;;;;;;;;5005029;28;20918;-65
2023/04/24 10:41:46;;;;;;;9.40;4.22;;;;;;;;;;5005361;28;20108;-68
2023/04/24 10:44:13;;;;;;;7.40;3.72;;;;;;;;;;5008268;28;20045;-70
2023/04/24 10:46:38;;;;;;;5.20;3.92;;;;;;;;;;4986168;28;20049;-73
2023/04/24 10:49:10;;;;;;;7.03;4.05;;;;;;;;;;5002668;28;20442;-62
2023/04/24 10:51:46;;;;;;;7.15;4.10;;;;;;;;;;4998879;28;20061;-67
2023/04/24 10:54:27;;;;;;;5.78;3.75;;;;;;;;;;5008964;28;20059;-71
2023/04/24 10:56:53;;;;;;;4.82;3.80;;;;;;;;;;4989011;28;20525;-63
2023/04/24 10:59:25;;;;;;;6.40;4.13;;;;;;;;;;5004392;28;20058;-71
2023/04/24 11:01:54;;;;;;;5.72;3.55;;;;;;;;;;4987486;28;20046;-68
2023/04/24 11:04:28;;;;;;;5.90;3.80;;;;;;;;;;5013248;28;20043;-76
2023/04/24 11:06:53;;;;;;;6.07;3.53;;;;;;;;;;4993291;28;21019;-64
2023/04/24 11:09:19;;;;;;;6.90;4.07;;;;;;;;;;5005625;28;20045;-64
2023/04/24 11:11:45;;;;;;;4.70;3.60;;;;;;;;;;4970702;28;20276;-72
2023/04/24 11:14:10;;;;;;;6.13;3.55;;;;;;;;;;5006507;28;20009;-72
2023/04/24 11:16:38;;;;;;;5.60;3.60;;;;;;;;;;5003741;28;20490;-70
2023/04/24 11:19:07;;;;;;;6.10;4.00;;;;;;;;;;4986026;28;20261;-71
2023/04/24 11:21:38;;;;;;;6.53;3.70;;;;;;;;;;5013826;28;20048;-69
2023/04/24 11:24:22;;;;;;;7.60;3.90;;;;;;;;;;4991460;28;20014;-70
2023/04/24 11:26:47;;;;;;;6.75;3.47;;;;;;;;;;5012341;28;20038;-66
2023/04/24 11:29:12;;;;;;;8.10;3.67;;;;;;;;;;5010552;28;20034;-65
2023/04/24 11:31:38;;;;;;;5.93;3.50;;;;;;;;;;5008959;28;20025;-65
2023/04/24 11:34:10;;;;;;;7.55;3.60;;;;;;;;;;4998626;28;20201;-67
2023/04/24 11:36:35;;;;;;;4.72;3.50;;;;;;;;;;4980541;28;20503;-64
2023/04/24 11:39:01;;;;;;;7.82;3.67;;;;;;;;;;4990801;28;20427;-66
2023/04/24 11:41:26;;;;;;;4.93;3.63;;;;;;;;;;4992133;28;20029;-65
2023/04/24 11:43:52;;;;;;;4.28;3.33;;;;;;;;;;4988147;28;20041;-62
2023/04/24 11:46:17;;;;;;;6.55;3.40;;;;;;;;;;5019019;28;20648;-63
2023/04/24 11:48:44;;;;;;;7.57;3.75;;;;;;;;;;4982849;28;20041;-70
2023/04/24 11:51:11;;;;;;;7.53;3.55;;;;;;;;;;5006091;28;20048;-69
2023/04/24 11:53:36;;;;;;;4.78;3.33;;;;;;;;;;4984414;28;20021;-64
2023/04/24 11:56:02;;;;;;;6.10;3.23;;;;;;;;;;5017185;28;20114;-69
2023/04/24 11:58:28;;;;;;;5.15;3.35;;;;;;;;;;5003717;28;20304;-66
2023/04/24 12:00:57;;;;;;;6.68;3.38;;;;;;;;;;4988421;28;20034;-65
2023/04/24 12:03:22;;;;;;;5.32;3.13;;;;;;;;;;4997000;28;20424;-66
2023/04/24 12:05:48;;;;;;;6.87;3.47;;;;;;;;;;4984249;28;20489;-66
2023/04/24 12:08:26;;;;;;;5.70;3.78;;;;;;;;;;4977590;28;20289;-69
2023/04/24 12:10:51;;;;;;;5.50;3.50;;;;;;;;;;4988533;28;20033;-76
2023/04/24 12:13:17;;;;;;;5.38;3.58;;;;;;;;;;5018555;28;20147;-66
2023/04/24 12:15:42;;;;;;;4.47;3.07;;;;;;;;;;5006580;28;20050;-68
2023/04/24 12:18:07;;;;;;;4.85;3.58;;;;;;;;;;4992899;28;20835;-64
2023/04/24 12:20:32;;;;;;;5.00;3.23;;;;;;;;;;5002083;28;20061;-67
2023/04/24 12:22:58;;;;;;;5.10;3.15;;;;;;;;;;5014214;28;20021;-69
2023/04/24 12:25:42;;;;;;;4.40;3.35;;;;;;;;;;5006490;28;20052;-65
2023/04/24 12:28:11;;;;;;;4.47;3.22;;;;;;;;;;5010422;28;20070;-66
2023/04/24 12:30:49;;;;;;;5.07;3.03;;;;;;;;;;5000451;28;20017;-69
2023/04/24 12:33:17;;;;;;;5.53;3.30;;;;;;;;;;5009094;28;20412;-67
2023/04/24 12:35:42;;;;;;;4.35;3.30;;;;;;;;;;5005398;28;20369;-68
2023/04/24 12:38:08;;;;;;;4.88;3.38;;;;;;;;;;4999887;28;20438;-65
2023/04/24 12:40:33;;;;;;;3.97;3.00;;;;;;;;;;5003650;28;20026;-67
2023/04/24 12:42:59;;;;;;;3.95;2.90;;;;;;;;;;5019473;28;20038;-65
2023/04/24 12:45:25;;;;;;;5.37;3.40;;;;;;;;;;5014536;28;20425;-67
2023/04/24 12:47:50;;;;;;;5.10;2.97;;;;;;;;;;5008361;28;20380;-67
2023/04/24 12:50:15;;;;;;;4.17;3.00;;;;;;;;;;5014202;28;20175;-68
2023/04/24 12:52:41;;;;;;;4.43;3.15;;;;;;;;;;4987759;28;20283;-66
2023/04/24 12:55:09;;;;;;;5.20;3.05;;;;;;;;;;4989580;28;20212;-65
2023/04/24 12:57:34;;;;;;;4.28;3.20;;;;;;;;;;4987766;28;20144;-66
2023/04/24 13:00:00;;;;;;;4.78;3.38;;;;;;;;;;5004876;28;20113;-65
2023/04/24 13:02:25;;;;;;;3.67;2.92;;;;;;;;;;5009868;28;20037;-67
2023/04/24 13:04:51;;;;;;;4.20;3.38;;;;;;;;;;5018708;28;20056;-69
2023/04/24 13:07:16;;;;;;;4.00;3.45;;;;;;;;;;5022772;28;20091;-65
2023/04/24 13:09:42;;;;;;;4.13;3.20;;;;;;;;;;5013202;28;20151;-65
2023/04/24 13:12:07;;;;;;;5.57;3.13;;;;;;;;;;5009261;28;20038;-67
2023/04/24 13:14:33;;;;;;;4.10;3.22;;;;;;;;;;4990924;28;20060;-66
2023/04/24 13:16:58;;;;;;;5.38;3.30;;;;;;;;;;5005349;28;20072;-67
2023/04/24 13:19:24;;;;;;;3.73;2.70;;;;;;;;;;5012180;28;20088;-70
2023/04/24 13:21:50;;;;;;;4.05;3.10;;;;;;;;;;4990793;28;20061;-69
2023/04/24 13:24:15;;;;;;;5.28;2.72;;;;;;;;;;4995891;28;20033;-67
2023/04/24 13:26:41;;;;;;;3.25;2.78;;;;;;;;;;5007639;28;20045;-62
2023/04/24 13:29:06;;;;;;;4.07;3.40;;;;;;;;;;5004554;28;20038;-66
2023/04/24 13:31:31;;;;;;;4.43;3.05;;;;;;;;;;5012266;28;20131;-65
2023/04/24 13:33:57;;;;;;;6.40;2.85;;;;;;;;;;5010084;28;20160;-66
2023/04/24 13:36:22;;;;;;;4.03;2.70;;;;;;;;;;5004325;28;20223;-64
2023/04/24 13:38:47;;;;;;;3.85;3.22;;;;;;;;;;5004297;28;20073;-70
2023/04/24 13:41:12;;;;;;;3.33;2.60;;;;;;;;;;4997036;28;20886;-68
2023/04/24 13:43:38;;;;;;;4.35;2.95;;;;;;;;;;5017288;28;20484;-69
2023/04/24 13:46:03;;;;;;;4.03;3.07;;;;;;;;;;5017998;28;20064;-70
2023/04/24 13:48:29;;;;;;;3.95;2.63;;;;;;;;;;5011320;28;20288;-67
2023/04/24 13:50:54;;;;;;;4.30;2.75;;;;;;;;;;5011928;28;20037;-67
2023/04/24 13:53:19;;;;;;;3.70;2.83;;;;;;;;;;4997447;28;20037;-69
2023/04/24 13:55:45;;;;;;;3.65;2.88;;;;;;;;;;5008882;28;20501;-64
2023/04/24 13:58:10;;;;;;;4.23;2.70;;;;;;;;;;4998779;28;20026;-66
2023/04/24 14:00:35;;;;;;;4.88;2.90;;;;;;;;;;4995141;28;20279;-71
2023/04/24 14:03:01;;;;;;;3.78;3.10;;;;;;;;;;5000021;28;20634;-65
2023/04/24 14:05:26;;;;;;;3.95;2.88;;;;;;;;;;4991972;28;20124;-66
2023/04/24 14:07:51;;;;;;;4.68;3.13;;;;;;;;;;5004096;28;20421;-68
2023/04/24 14:10:16;;;;;;;3.58;2.85;;;;;;;;;;5013707;28;20034;-69
2023/04/24 14:12:42;;;;;;;3.43;2.73;;;;;;;;;;5009397;28;20037;-62
2023/04/24 14:15:08;;;;;;;3.13;2.70;;;;;;;;;;5003732;28;20283;-65
2023/04/24 14:17:33;;;;;;;3.30;2.75;;;;;;;;;;5017926;28;20284;-63
2023/04/24 14:20:00;;;;;;;4.33;2.93;;;;;;;;;;5003186;28;20034;-68
2023/04/24 14:22:25;;;;;;;4.40;2.83;;;;;;;;;;5014719;28;20324;-68
2023/04/24 14:24:50;;;;;;;3.33;2.63;;;;;;;;;;5005020;28;20104;-64
2023/04/24 14:27:16;;;;;;;3.73;2.90;;;;;;;;;;5010096;28;20307;-61
2023/04/24 14:29:41;;;;;;;3.67;2.70;;;;;;;;;;5018574;28;20284;-65
2023/04/24 14:32:06;;;;;;;3.30;2.80;;;;;;;;;;5005156;28;20116;-67